createdAt,value
2019-05-30T00:00:49.965Z,64.50
2019-05-30T00:03:54.266Z,64.20
2019-05-30T00:06:58.755Z,64.10
2019-05-30T00:10:03.208Z,64.20
2019-05-30T00:13:07.629Z,64.70
2019-05-30T00:16:11.921Z,64.30
2019-05-30T00:19:16.230Z,64.50
2019-05-30T00:22:20.601Z,64.20
2019-05-30T00:25:25.009Z,64.30
2019-05-30T00:28:29.373Z,64.10
2019-05-30T00:31:33.743Z,64.30
2019-05-30T00:34:38.121Z,64.70
2019-05-30T00:37:42.537Z,65.00
2019-05-30T00:40:47.238Z,65.10
2019-05-30T00:43:51.660Z,65.20
2019-05-30T00:46:56.123Z,64.50
2019-05-30T00:50:00.563Z,64.00
2019-05-30T00:53:05.393Z,64.20
2019-05-30T00:56:09.950Z,64.30
2019-05-30T00:59:14.338Z,64.50
2019-05-30T01:02:18.662Z,64.40
2019-05-30T01:05:22.955Z,64.40
2019-05-30T01:08:27.270Z,65.30
2019-05-30T01:11:31.659Z,65.20
2019-05-30T01:14:36.064Z,65.00
2019-05-30T01:17:40.361Z,64.90
2019-05-30T01:20:45.535Z,64.80
2019-05-30T01:23:49.850Z,64.50
2019-05-30T01:26:54.938Z,65.30
2019-05-30T01:29:59.573Z,64.30
2019-05-30T01:33:04.011Z,64.50
2019-05-30T01:36:08.330Z,64.50
2019-05-30T01:39:12.749Z,64.30
2019-05-30T01:42:17.204Z,64.20
2019-05-30T01:45:21.752Z,64.20
2019-05-30T01:48:26.039Z,64.10
2019-05-30T01:51:30.289Z,64.40
2019-05-30T01:54:34.614Z,64.60
2019-05-30T01:57:38.936Z,65.00
2019-05-30T02:00:43.304Z,65.30
2019-05-30T02:03:49.300Z,64.90
2019-05-30T02:06:53.742Z,64.40
2019-05-30T02:09:59.164Z,64.20
2019-05-30T02:13:03.523Z,64.30
2019-05-30T02:16:07.909Z,64.20
2019-05-30T02:19:12.259Z,64.60
2019-05-30T02:22:16.604Z,64.60
2019-05-30T02:25:20.889Z,65.10
2019-05-30T02:28:25.264Z,65.60
2019-05-30T02:31:39.129Z,65.30
2019-05-30T02:34:35.580Z,64.90
2019-05-30T02:37:39.970Z,64.90
2019-05-30T02:40:44.306Z,64.80
2019-05-30T02:43:48.679Z,64.80
2019-05-30T02:46:58.138Z,64.70
2019-05-30T02:50:04.391Z,64.50
2019-05-30T02:53:10.553Z,64.50
2019-05-30T02:56:14.517Z,64.60
2019-05-30T02:59:18.774Z,64.40
2019-05-30T03:02:23.131Z,64.60
2019-05-30T03:05:27.568Z,64.50
2019-05-30T03:08:31.854Z,64.70
2019-05-30T03:11:36.601Z,65.00
2019-05-30T03:14:40.900Z,65.40
2019-05-30T03:17:45.202Z,65.60
2019-05-30T03:20:49.491Z,65.60
2019-05-30T03:23:53.826Z,65.00
2019-05-30T03:26:58.194Z,65.90
2019-05-30T03:30:07.550Z,65.20
2019-05-30T03:33:24.383Z,65.30
2019-05-30T03:36:27.645Z,65.80
2019-05-30T03:39:20.635Z,65.60
2019-05-30T03:42:26.359Z,65.90
2019-05-30T03:45:32.579Z,66.30
2019-05-30T03:48:37.316Z,66.10
2019-05-30T03:51:43.569Z,66.00
2019-05-30T03:54:49.570Z,66.00
2019-05-30T03:58:00.236Z,65.80
2019-05-30T04:01:08.041Z,65.80
2019-05-30T04:04:20.595Z,65.90
2019-05-30T04:07:27.524Z,66.00
2019-05-30T04:10:36.469Z,65.90
2019-05-30T04:13:54.382Z,65.80
2019-05-30T04:16:58.988Z,65.80
2019-05-30T04:20:03.506Z,65.80
2019-05-30T04:23:08.478Z,65.90
2019-05-30T04:26:13.872Z,65.90
2019-05-30T04:29:19.047Z,66.10
2019-05-30T04:32:23.588Z,66.40
2019-05-30T04:35:27.951Z,66.50
2019-05-30T04:38:32.292Z,66.70
2019-05-30T04:41:37.987Z,66.40
2019-05-30T04:44:42.296Z,66.50
2019-05-30T04:47:46.568Z,66.80
2019-05-30T04:50:50.882Z,66.80
2019-05-30T04:53:55.166Z,67.00
2019-05-30T04:56:59.554Z,67.10
2019-05-30T05:00:04.614Z,67.20
2019-05-30T05:03:08.996Z,67.20
2019-05-30T05:06:13.789Z,67.20
2019-05-30T05:09:18.356Z,67.80
2019-05-30T05:12:23.560Z,66.90
2019-05-30T05:15:27.899Z,66.80
2019-05-30T05:18:32.306Z,66.80
2019-05-30T05:21:36.637Z,66.90
2019-05-30T05:24:40.912Z,67.00
2019-05-30T05:27:45.229Z,66.80
2019-05-30T05:30:49.663Z,66.90
2019-05-30T05:33:57.058Z,66.90
2019-05-30T05:37:00.308Z,66.80
2019-05-30T05:40:04.999Z,66.80
2019-05-30T05:43:09.199Z,66.80
2019-05-30T05:46:13.752Z,67.00
2019-05-30T05:49:18.414Z,67.20
2019-05-30T05:52:24.859Z,67.40
2019-05-30T05:55:29.218Z,67.40
2019-05-30T05:58:33.597Z,67.30
2019-05-30T06:01:37.883Z,67.50
2019-05-30T06:04:42.265Z,67.50
2019-05-30T06:07:46.623Z,67.60
2019-05-30T06:10:50.971Z,67.80
2019-05-30T06:13:55.228Z,67.70
2019-05-30T06:16:59.474Z,67.90
2019-05-30T06:20:03.891Z,67.80
2019-05-30T06:23:08.306Z,67.70
2019-05-30T06:26:12.582Z,67.80
2019-05-30T06:29:17.898Z,67.80
2019-05-30T06:32:22.916Z,67.70
2019-05-30T06:35:27.540Z,68.20
2019-05-30T06:38:31.900Z,68.00
2019-05-30T06:41:36.332Z,68.00
2019-05-30T06:44:40.778Z,67.80
2019-05-30T06:47:45.002Z,67.90
2019-05-30T06:50:49.217Z,67.90
2019-05-30T06:53:53.461Z,69.20
2019-05-30T06:56:57.959Z,68.20
2019-05-30T07:00:02.287Z,68.50
2019-05-30T07:03:06.677Z,68.90
2019-05-30T07:06:11.322Z,69.30
2019-05-30T07:09:16.000Z,69.50
2019-05-30T07:12:20.360Z,69.60
2019-05-30T07:15:25.093Z,70.00
2019-05-30T07:18:33.362Z,70.00
2019-05-30T07:21:35.581Z,70.10
2019-05-30T07:24:40.042Z,70.10
2019-05-30T07:27:44.310Z,70.40
2019-05-30T07:30:48.621Z,70.40
2019-05-30T07:33:52.988Z,70.40
2019-05-30T07:36:57.312Z,70.20
2019-05-30T07:40:01.783Z,70.00
2019-05-30T07:43:06.303Z,70.00
2019-05-30T07:46:10.731Z,70.00
2019-05-30T07:49:14.971Z,69.80
2019-05-30T07:52:19.252Z,69.90
2019-05-30T07:55:23.594Z,69.70
2019-05-30T07:58:28.996Z,69.70
2019-05-30T08:01:34.650Z,69.90
2019-05-30T08:04:38.979Z,69.80
2019-05-30T08:07:43.251Z,70.00
2019-05-30T08:10:47.632Z,69.90
2019-05-30T08:13:52.033Z,69.90
2019-05-30T08:16:56.363Z,69.90
2019-05-30T08:20:00.702Z,70.40
2019-05-30T08:23:05.005Z,70.60
2019-05-30T08:26:09.299Z,70.90
2019-05-30T08:29:13.584Z,71.10
2019-05-30T08:32:17.924Z,71.20
2019-05-30T08:35:22.320Z,71.20
2019-05-30T08:38:26.636Z,71.30
2019-05-30T08:41:31.163Z,71.70
2019-05-30T08:44:35.906Z,71.80
2019-05-30T08:47:40.864Z,71.80
2019-05-30T08:50:45.186Z,71.70
2019-05-30T08:53:49.486Z,71.60
2019-05-30T08:56:53.801Z,71.40
2019-05-30T08:59:58.324Z,71.30
2019-05-30T09:03:02.700Z,70.90
2019-05-30T09:06:06.983Z,70.70
2019-05-30T09:09:11.740Z,70.60
2019-05-30T09:12:16.105Z,70.40
2019-05-30T09:15:22.246Z,70.40
2019-05-30T09:18:26.758Z,70.40
2019-05-30T09:21:31.217Z,70.40
2019-05-30T09:24:35.517Z,70.20
2019-05-30T09:27:40.800Z,70.40
2019-05-30T09:30:46.506Z,70.40
2019-05-30T09:33:53.469Z,70.40
2019-05-30T09:36:57.679Z,71.50
2019-05-30T09:40:01.970Z,71.20
2019-05-30T09:43:06.292Z,71.30
2019-05-30T09:46:10.698Z,70.90
2019-05-30T09:49:15.130Z,70.60
2019-05-30T09:52:19.573Z,70.60
2019-05-30T09:55:24.247Z,70.60
2019-05-30T09:58:28.627Z,70.70
2019-05-30T10:01:32.994Z,70.70
2019-05-30T10:04:37.661Z,70.80
2019-05-30T10:07:43.544Z,70.80
2019-05-30T10:10:49.558Z,70.50
2019-05-30T10:13:53.984Z,70.10
2019-05-30T10:16:59.365Z,69.80
2019-05-30T10:20:04.327Z,69.60
2019-05-30T10:23:09.444Z,69.30
2019-05-30T10:26:14.649Z,69.40
2019-05-30T10:29:20.462Z,69.50
2019-05-30T10:32:25.702Z,69.40
2019-05-30T10:35:31.169Z,69.40
2019-05-30T10:38:35.372Z,69.20
2019-05-30T10:41:39.622Z,69.20
2019-05-30T10:44:43.897Z,69.20
2019-05-30T10:47:49.409Z,69.10
2019-05-30T10:50:54.458Z,69.30
2019-05-30T10:53:58.857Z,69.30
2019-05-30T10:57:03.060Z,69.80
2019-05-30T11:00:09.922Z,70.20
2019-05-30T11:03:14.398Z,70.50
2019-05-30T11:06:34.717Z,70.80
2019-05-30T11:09:44.012Z,70.80
2019-05-30T11:12:49.541Z,70.90
2019-05-30T11:15:55.499Z,71.10
2019-05-30T11:19:00.084Z,72.00
2019-05-30T11:22:04.604Z,71.20
2019-05-30T11:25:09.013Z,71.10
2019-05-30T11:28:13.339Z,70.90
2019-05-30T11:31:17.714Z,70.80
2019-05-30T11:34:22.330Z,70.60
2019-05-30T11:37:26.745Z,70.10
2019-05-30T11:40:31.007Z,70.10
2019-05-30T11:43:35.357Z,70.00
2019-05-30T11:46:39.652Z,69.40
2019-05-30T11:49:43.943Z,70.20
2019-05-30T11:52:49.736Z,70.00
2019-05-30T11:55:54.256Z,69.80
2019-05-30T11:58:58.842Z,69.80
2019-05-30T12:02:03.483Z,69.60
2019-05-30T12:05:08.785Z,69.30
2019-05-30T12:08:13.101Z,69.30
2019-05-30T12:11:17.396Z,69.60
2019-05-30T12:14:21.793Z,69.80
2019-05-30T12:17:26.100Z,70.10
2019-05-30T12:20:30.504Z,70.40
2019-05-30T12:23:34.702Z,70.50
2019-05-30T12:26:38.961Z,70.50
2019-05-30T12:29:43.243Z,70.70
2019-05-30T12:32:47.871Z,71.00
2019-05-30T12:35:52.442Z,70.90
2019-05-30T12:38:56.839Z,71.00
2019-05-30T12:42:01.293Z,71.00
2019-05-30T12:45:07.365Z,70.70
2019-05-30T12:48:12.260Z,70.20
2019-05-30T12:51:16.635Z,69.90
2019-05-30T12:54:21.036Z,69.70
2019-05-30T12:57:25.369Z,69.20
2019-05-30T13:00:30.527Z,69.10
2019-05-30T13:03:34.915Z,68.90
2019-05-30T13:06:39.238Z,68.90
2019-05-30T13:09:43.654Z,68.90
2019-05-30T13:12:47.936Z,68.90
2019-05-30T13:15:52.253Z,68.80
2019-05-30T13:18:57.907Z,68.70
2019-05-30T13:22:03.377Z,68.60
2019-05-30T13:25:09.354Z,68.60
2019-05-30T13:28:16.720Z,68.50
2019-05-30T13:31:21.156Z,68.90
2019-05-30T13:34:25.520Z,69.10
2019-05-30T13:37:29.896Z,69.30
2019-05-30T13:40:34.618Z,69.40
2019-05-30T13:43:39.163Z,69.40
2019-05-30T13:46:43.543Z,69.50
2019-05-30T13:49:47.752Z,69.50
2019-05-30T13:52:52.178Z,69.30
2019-05-30T13:55:56.394Z,68.90
2019-05-30T13:59:01.717Z,68.70
2019-05-30T14:02:06.410Z,69.00
2019-05-30T14:05:11.314Z,69.10
2019-05-30T14:08:16.714Z,69.10
2019-05-30T14:11:21.219Z,68.80
2019-05-30T14:14:25.569Z,68.70
2019-05-30T14:17:29.851Z,68.60
2019-05-30T14:20:34.141Z,68.30
2019-05-30T14:23:38.576Z,68.40
2019-05-30T14:26:42.858Z,67.80
2019-05-30T14:29:47.144Z,67.50
2019-05-30T14:32:51.348Z,67.40
2019-05-30T14:35:55.692Z,67.20
2019-05-30T14:38:59.937Z,66.80
2019-05-30T14:42:05.036Z,66.60
2019-05-30T14:45:10.710Z,66.30
2019-05-30T14:48:15.075Z,66.30
2019-05-30T14:51:19.405Z,66.20
2019-05-30T14:54:23.952Z,66.10
2019-05-30T14:57:28.333Z,66.20
2019-05-30T15:00:32.656Z,65.90
2019-05-30T15:03:36.915Z,65.90
2019-05-30T15:06:41.292Z,65.90
2019-05-30T15:09:45.553Z,65.90
2019-05-30T15:12:49.985Z,65.90
2019-05-30T15:15:56.979Z,65.60
2019-05-30T15:19:00.478Z,66.00
2019-05-30T15:22:05.561Z,66.10
2019-05-30T15:25:10.147Z,66.00
2019-05-30T15:28:14.433Z,66.10
2019-05-30T15:31:18.814Z,66.00
2019-05-30T15:34:23.095Z,66.30
2019-05-30T15:37:27.463Z,65.70
2019-05-30T15:40:31.741Z,65.30
2019-05-30T15:43:36.156Z,65.70
2019-05-30T15:46:40.363Z,65.60
2019-05-30T15:49:44.740Z,65.40
2019-05-30T15:52:49.745Z,65.20
2019-05-30T15:55:54.110Z,65.20
2019-05-30T15:58:58.396Z,65.20
2019-05-30T16:02:02.719Z,65.40
2019-05-30T16:05:07.340Z,64.60
2019-05-30T16:08:12.625Z,65.70
2019-05-30T16:11:17.078Z,65.30
2019-05-30T16:14:21.610Z,65.30
2019-05-30T16:17:26.434Z,65.80
2019-05-30T16:20:30.878Z,66.00
2019-05-30T16:23:35.173Z,66.30
2019-05-30T16:26:39.579Z,66.40
2019-05-30T16:29:43.896Z,66.50
2019-05-30T16:32:48.267Z,66.60
2019-05-30T16:35:52.766Z,66.50
2019-05-30T16:38:57.131Z,66.50
2019-05-30T16:42:01.464Z,66.60
2019-05-30T16:45:08.577Z,66.50
2019-05-30T16:48:14.277Z,66.70
2019-05-30T16:51:18.825Z,67.40
2019-05-30T16:54:23.432Z,66.40
2019-05-30T16:57:27.934Z,66.70
2019-05-30T17:00:32.298Z,66.70
2019-05-30T17:03:36.642Z,66.70
2019-05-30T17:06:40.941Z,67.00
2019-05-30T17:09:45.460Z,67.30
2019-05-30T17:12:53.402Z,67.60
2019-05-30T17:15:58.590Z,68.00
2019-05-30T17:19:03.657Z,69.10
2019-05-30T17:22:10.375Z,68.30
2019-05-30T17:25:15.148Z,68.50
2019-05-30T17:28:20.323Z,68.60
2019-05-30T17:31:26.070Z,68.60
2019-05-30T17:34:30.652Z,68.80
2019-05-30T17:37:35.075Z,69.00
2019-05-30T17:40:44.952Z,68.70
2019-05-30T17:43:45.416Z,69.30
2019-05-30T17:46:49.740Z,68.30
2019-05-30T17:49:54.117Z,68.00
2019-05-30T17:52:58.521Z,68.10
2019-05-30T17:56:02.878Z,68.10
2019-05-30T17:59:07.143Z,67.90
2019-05-30T18:02:11.940Z,67.90
2019-05-30T18:05:17.333Z,67.80
2019-05-30T18:08:22.739Z,67.90
2019-05-30T18:11:27.309Z,67.80
2019-05-30T18:14:31.597Z,67.90
2019-05-30T18:17:36.048Z,67.90
2019-05-30T18:20:48.455Z,67.90
2019-05-30T18:23:47.216Z,67.90
2019-05-30T18:26:51.608Z,68.20
2019-05-30T18:29:56.024Z,68.50
2019-05-30T18:33:00.253Z,68.70
2019-05-30T18:36:04.729Z,68.90
2019-05-30T18:39:09.014Z,69.10
2019-05-30T18:42:13.335Z,69.30
2019-05-30T18:45:21.000Z,69.30
2019-05-30T18:48:25.331Z,69.40
2019-05-30T18:51:30.355Z,69.70
2019-05-30T18:54:34.733Z,69.80
2019-05-30T18:57:39.017Z,69.40
2019-05-30T19:00:43.368Z,69.30
2019-05-30T19:03:47.720Z,69.00
2019-05-30T19:06:52.020Z,69.00
2019-05-30T19:09:56.401Z,68.90
2019-05-30T19:13:00.710Z,68.60
2019-05-30T19:16:04.954Z,68.60
2019-05-30T19:19:09.356Z,68.60
2019-05-30T19:22:13.736Z,68.60
2019-05-30T19:25:18.084Z,68.60
2019-05-30T19:28:22.365Z,68.50
2019-05-30T19:31:26.727Z,68.50
2019-05-30T19:34:31.104Z,68.40
2019-05-30T19:37:35.522Z,68.50
2019-05-30T19:40:39.821Z,68.50
2019-05-30T19:43:44.122Z,68.70
2019-05-30T19:46:51.215Z,68.80
2019-05-30T19:49:55.624Z,69.10
2019-05-30T19:53:00.018Z,69.20
2019-05-30T19:56:04.411Z,69.10
2019-05-30T19:59:08.619Z,69.40
2019-05-30T20:02:14.612Z,69.50
2019-05-30T20:05:22.221Z,69.70
2019-05-30T20:08:26.562Z,69.70
2019-05-30T20:11:30.907Z,69.60
2019-05-30T20:14:35.202Z,69.50
2019-05-30T20:17:39.858Z,69.50
2019-05-30T20:20:56.387Z,69.30
2019-05-30T20:23:56.571Z,69.10
2019-05-30T20:26:57.226Z,68.90
2019-05-30T20:30:01.483Z,68.80
2019-05-30T20:33:06.068Z,68.80
2019-05-30T20:36:10.427Z,69.50
2019-05-30T20:39:14.880Z,68.60
2019-05-30T20:42:19.898Z,68.70
2019-05-30T20:45:24.273Z,68.70
2019-05-30T20:48:28.630Z,68.70
2019-05-30T20:51:35.022Z,68.70
2019-05-30T20:54:39.522Z,68.70
2019-05-30T20:57:43.878Z,68.70
2019-05-30T21:00:48.383Z,68.50
2019-05-30T21:03:53.198Z,68.70
2019-05-30T21:06:58.560Z,68.90
2019-05-30T21:10:03.735Z,69.20
2019-05-30T21:13:08.113Z,69.30
2019-05-30T21:16:15.647Z,69.40
2019-05-30T21:19:19.917Z,69.50
2019-05-30T21:22:24.253Z,69.70
2019-05-30T21:25:28.541Z,69.70
2019-05-30T21:28:32.942Z,69.80
2019-05-30T21:31:37.380Z,69.80
2019-05-30T21:34:42.362Z,70.00
2019-05-30T21:37:47.893Z,69.90
2019-05-30T21:40:52.441Z,69.60
2019-05-30T21:43:56.849Z,69.80
2019-05-30T21:47:01.299Z,69.10
2019-05-30T21:50:06.379Z,69.10
2019-05-30T21:53:10.653Z,69.00
2019-05-30T21:56:15.218Z,68.90
2019-05-30T21:59:19.820Z,68.90
2019-05-30T22:02:24.079Z,69.00
2019-05-30T22:05:28.499Z,68.90
2019-05-30T22:08:32.790Z,68.90
2019-05-30T22:11:37.210Z,68.90
2019-05-30T22:14:41.792Z,68.90
2019-05-30T22:17:46.116Z,68.80
2019-05-30T22:20:50.403Z,68.70
2019-05-30T22:23:54.923Z,68.90
2019-05-30T22:26:59.161Z,69.20
2019-05-30T22:30:03.545Z,69.20
2019-05-30T22:33:07.800Z,69.10
2019-05-30T22:36:12.173Z,69.00
2019-05-30T22:39:16.395Z,69.10
2019-05-30T22:42:20.700Z,69.00
2019-05-30T22:45:24.901Z,69.00
2019-05-30T22:48:29.288Z,69.20
2019-05-30T22:51:33.575Z,69.00
2019-05-30T22:54:37.826Z,69.10
2019-05-30T22:57:42.292Z,69.00
2019-05-30T23:00:47.810Z,69.00
2019-05-30T23:03:52.630Z,69.70
2019-05-30T23:06:58.141Z,68.60
2019-05-30T23:10:02.537Z,68.60
2019-05-30T23:13:06.837Z,68.50
2019-05-30T23:16:11.065Z,68.50
2019-05-30T23:19:15.438Z,68.60
2019-05-30T23:22:19.732Z,68.60
2019-05-30T23:25:24.053Z,68.50
2019-05-30T23:28:28.511Z,68.60
2019-05-30T23:31:32.783Z,68.60
2019-05-30T23:34:37.000Z,68.60
2019-05-30T23:37:41.564Z,68.70
2019-05-30T23:40:45.771Z,68.70
2019-05-30T23:43:58.021Z,68.70
2019-05-30T23:46:57.735Z,68.90
2019-05-30T23:50:01.961Z,69.00
2019-05-30T23:53:06.231Z,68.60
2019-05-30T23:56:10.472Z,68.50
2019-05-30T23:59:14.676Z,68.50
